sensor_id;sensor_type;location;lat;lon;timestamp;pressure;altitude;pressure_sealevel;temperature;humidity
61292;BME280;47165;42.664;23.368;2022-07-18T00:00:06;95712.63;;;22.53;35.94
61292;BME280;47165;42.664;23.368;2022-07-18T00:02:33;95705.34;;;22.64;35.77
61292;BME280;47165;42.664;23.368;2022-07-18T00:04:58;95710.78;;;22.73;35.51
61292;BME280;47165;42.664;23.368;2022-07-18T00:07:24;95705.28;;;22.74;35.86
61292;BME280;47165;42.664;23.368;2022-07-18T00:09:49;95709.16;;;22.33;36.39
61292;BME280;47165;42.664;23.368;2022-07-18T00:12:15;95703.53;;;22.45;35.94
61292;BME280;47165;42.664;23.368;2022-07-18T00:14:40;95701.75;;;22.26;36.43
61292;BME280;47165;42.664;23.368;2022-07-18T00:17:07;95708.03;;;22.06;37.08
61292;BME280;47165;42.664;23.368;2022-07-18T00:19:33;95697.66;;;22.13;36.48
61292;BME280;47165;42.664;23.368;2022-07-18T00:21:58;95703.41;;;22.18;36.42
61292;BME280;47165;42.664;23.368;2022-07-18T00:24:24;95700.19;;;22.14;36.53
61292;BME280;47165;42.664;23.368;2022-07-18T00:26:49;95698.81;;;22.29;36.30
61292;BME280;47165;42.664;23.368;2022-07-18T00:29:15;95701.31;;;22.02;36.61
61292;BME280;47165;42.664;23.368;2022-07-18T00:31:40;95698.38;;;22.15;36.32
61292;BME280;47165;42.664;23.368;2022-07-18T00:34:05;95691.53;;;22.12;36.35
61292;BME280;47165;42.664;23.368;2022-07-18T00:36:31;95695.16;;;21.92;37.29
61292;BME280;47165;42.664;23.368;2022-07-18T00:38:57;95698.50;;;21.84;36.76
61292;BME280;47165;42.664;23.368;2022-07-18T00:41:24;95694.91;;;21.95;36.05
61292;BME280;47165;42.664;23.368;2022-07-18T00:43:50;95698.97;;;21.99;35.83
61292;BME280;47165;42.664;23.368;2022-07-18T00:46:23;95694.34;;;22.01;35.84
61292;BME280;47165;42.664;23.368;2022-07-18T00:48:50;95690.69;;;22.02;35.53
61292;BME280;47165;42.664;23.368;2022-07-18T00:51:16;95690.25;;;22.06;35.13
61292;BME280;47165;42.664;23.368;2022-07-18T00:53:43;95698.53;;;22.13;35.09
61292;BME280;47165;42.664;23.368;2022-07-18T00:56:09;95708.19;;;22.14;34.80
61292;BME280;47165;42.664;23.368;2022-07-18T00:58:35;95696.56;;;22.15;35.06
61292;BME280;47165;42.664;23.368;2022-07-18T01:01:01;95699.63;;;22.20;35.06
61292;BME280;47165;42.664;23.368;2022-07-18T01:03:45;95702.88;;;22.24;35.09
61292;BME280;47165;42.664;23.368;2022-07-18T01:06:11;95698.50;;;22.23;34.46
61292;BME280;47165;42.664;23.368;2022-07-18T01:08:36;95712.22;;;21.79;35.04
61292;BME280;47165;42.664;23.368;2022-07-18T01:11:03;95707.50;;;21.93;35.31
61292;BME280;47165;42.664;23.368;2022-07-18T01:13:29;95704.53;;;21.96;34.70
61292;BME280;47165;42.664;23.368;2022-07-18T01:15:54;95704.97;;;22.01;34.60
61292;BME280;47165;42.664;23.368;2022-07-18T01:18:20;95694.06;;;21.84;34.63
61292;BME280;47165;42.664;23.368;2022-07-18T01:20:45;95698.84;;;21.21;35.26
61292;BME280;47165;42.664;23.368;2022-07-18T01:23:11;95694.63;;;20.87;35.59
61292;BME280;47165;42.664;23.368;2022-07-18T01:25:36;95697.25;;;21.18;35.17
61292;BME280;47165;42.664;23.368;2022-07-18T01:28:02;95698.13;;;21.19;34.62
61292;BME280;47165;42.664;23.368;2022-07-18T01:30:28;95698.69;;;21.32;34.62
61292;BME280;47165;42.664;23.368;2022-07-18T01:33:01;95699.97;;;21.38;34.42
61292;BME280;47165;42.664;23.368;2022-07-18T01:35:28;95700.31;;;21.44;34.31
61292;BME280;47165;42.664;23.368;2022-07-18T01:37:55;95687.13;;;21.33;34.47
61292;BME280;47165;42.664;23.368;2022-07-18T01:40:22;95688.94;;;20.92;35.29
61292;BME280;47165;42.664;23.368;2022-07-18T01:42:48;95693.56;;;20.59;36.02
61292;BME280;47165;42.664;23.368;2022-07-18T01:45:13;95688.03;;;20.51;35.57
61292;BME280;47165;42.664;23.368;2022-07-18T01:47:39;95688.84;;;20.73;35.37
61292;BME280;47165;42.664;23.368;2022-07-18T01:50:05;95687.25;;;20.91;35.09
61292;BME280;47165;42.664;23.368;2022-07-18T01:52:30;95690.38;;;21.06;34.57
61292;BME280;47165;42.664;23.368;2022-07-18T01:54:56;95688.22;;;21.21;34.10
61292;BME280;47165;42.664;23.368;2022-07-18T01:57:21;95686.09;;;21.24;34.16
61292;BME280;47165;42.664;23.368;2022-07-18T01:59:47;95685.84;;;21.27;33.84
61292;BME280;47165;42.664;23.368;2022-07-18T02:02:12;95679.00;;;21.25;34.01
61292;BME280;47165;42.664;23.368;2022-07-18T02:04:38;95687.38;;;21.30;33.87
61292;BME280;47165;42.664;23.368;2022-07-18T02:07:22;95686.41;;;21.41;33.66
61292;BME280;47165;42.664;23.368;2022-07-18T02:09:48;95680.56;;;21.37;33.68
61292;BME280;47165;42.664;23.368;2022-07-18T02:12:14;95687.94;;;21.34;33.61
61292;BME280;47165;42.664;23.368;2022-07-18T02:14:39;95688.66;;;21.36;33.50
61292;BME280;47165;42.664;23.368;2022-07-18T02:17:05;95693.13;;;21.35;33.73
61292;BME280;47165;42.664;23.368;2022-07-18T02:19:30;95690.66;;;21.43;33.99
61292;BME280;47165;42.664;23.368;2022-07-18T02:21:56;95691.66;;;21.52;33.88
61292;BME280;47165;42.664;23.368;2022-07-18T02:24:21;95685.50;;;21.52;33.06
61292;BME280;47165;42.664;23.368;2022-07-18T02:26:47;95689.56;;;21.56;33.26
61292;BME280;47165;42.664;23.368;2022-07-18T02:29:12;95697.25;;;21.59;33.40
61292;BME280;47165;42.664;23.368;2022-07-18T02:31:38;95702.44;;;21.60;34.43
61292;BME280;47165;42.664;23.368;2022-07-18T02:34:03;95699.91;;;21.59;33.30
61292;BME280;47165;42.664;23.368;2022-07-18T02:36:36;95707.03;;;21.58;34.06
61292;BME280;47165;42.664;23.368;2022-07-18T02:39:02;95711.38;;;21.49;34.52
61292;BME280;47165;42.664;23.368;2022-07-18T02:41:28;95706.31;;;21.46;33.64
61292;BME280;47165;42.664;23.368;2022-07-18T02:43:53;95714.94;;;21.39;38.10
61292;BME280;47165;42.664;23.368;2022-07-18T02:46:18;95725.25;;;21.32;38.15
61292;BME280;47165;42.664;23.368;2022-07-18T02:48:44;95715.19;;;21.26;38.14
61292;BME280;47165;42.664;23.368;2022-07-18T02:51:09;95719.91;;;21.22;38.57
61292;BME280;47165;42.664;23.368;2022-07-18T02:53:34;95726.47;;;21.18;38.88
61292;BME280;47165;42.664;23.368;2022-07-18T02:56:00;95724.91;;;21.06;38.07
61292;BME280;47165;42.664;23.368;2022-07-18T02:58:25;95720.44;;;21.06;35.98
61292;BME280;47165;42.664;23.368;2022-07-18T03:00:51;95722.13;;;21.07;36.24
61292;BME280;47165;42.664;23.368;2022-07-18T03:03:16;95723.47;;;21.02;37.58
61292;BME280;47165;42.664;23.368;2022-07-18T03:05:42;95727.25;;;20.99;35.83
61292;BME280;47165;42.664;23.368;2022-07-18T03:08:07;95724.19;;;20.94;38.45
61292;BME280;47165;42.664;23.368;2022-07-18T03:10:33;95725.41;;;20.90;38.67
61292;BME280;47165;42.664;23.368;2022-07-18T03:12:58;95734.75;;;20.84;38.84
61292;BME280;47165;42.664;23.368;2022-07-18T03:15:23;95732.16;;;20.73;40.18
61292;BME280;47165;42.664;23.368;2022-07-18T03:17:49;95742.38;;;20.57;37.91
61292;BME280;47165;42.664;23.368;2022-07-18T03:20:14;95735.50;;;20.54;37.96
61292;BME280;47165;42.664;23.368;2022-07-18T03:22:40;95735.50;;;20.54;36.17
61292;BME280;47165;42.664;23.368;2022-07-18T03:25:05;95728.78;;;20.50;38.01
61292;BME280;47165;42.664;23.368;2022-07-18T03:27:31;95738.50;;;20.40;36.44
61292;BME280;47165;42.664;23.368;2022-07-18T03:29:56;95727.28;;;20.36;35.46
61292;BME280;47165;42.664;23.368;2022-07-18T03:32:22;95726.06;;;20.40;34.82
61292;BME280;47165;42.664;23.368;2022-07-18T03:34:48;95739.78;;;20.45;35.26
61292;BME280;47165;42.664;23.368;2022-07-18T03:37:14;95728.78;;;20.50;37.03
61292;BME280;47165;42.664;23.368;2022-07-18T03:39:39;95736.31;;;20.45;36.46
61292;BME280;47165;42.664;23.368;2022-07-18T03:42:05;95727.63;;;20.43;34.94
61292;BME280;47165;42.664;23.368;2022-07-18T03:44:30;95734.19;;;20.39;39.11
61292;BME280;47165;42.664;23.368;2022-07-18T03:46:55;95743.38;;;20.35;39.55
61292;BME280;47165;42.664;23.368;2022-07-18T03:49:21;95739.00;;;20.34;39.51
61292;BME280;47165;42.664;23.368;2022-07-18T03:51:46;95740.72;;;20.35;37.78
61292;BME280;47165;42.664;23.368;2022-07-18T03:54:12;95735.13;;;20.38;37.73
61292;BME280;47165;42.664;23.368;2022-07-18T03:56:38;95742.13;;;20.39;38.68
61292;BME280;47165;42.664;23.368;2022-07-18T03:59:04;95743.81;;;20.40;39.46
61292;BME280;47165;42.664;23.368;2022-07-18T04:01:29;95756.88;;;20.32;40.20
61292;BME280;47165;42.664;23.368;2022-07-18T04:03:55;95756.66;;;20.23;40.81
61292;BME280;47165;42.664;23.368;2022-07-18T04:06:20;95752.84;;;20.16;41.54
61292;BME280;47165;42.664;23.368;2022-07-18T04:08:45;95754.91;;;20.13;41.67
61292;BME280;47165;42.664;23.368;2022-07-18T04:11:11;95743.13;;;20.05;42.31
61292;BME280;47165;42.664;23.368;2022-07-18T04:13:37;95758.19;;;20.05;42.39
61292;BME280;47165;42.664;23.368;2022-07-18T04:16:02;95749.72;;;19.79;43.32
61292;BME280;47165;42.664;23.368;2022-07-18T04:18:28;95755.22;;;19.55;43.76
61292;BME280;47165;42.664;23.368;2022-07-18T04:20:53;95752.19;;;19.59;43.74
61292;BME280;47165;42.664;23.368;2022-07-18T04:23:19;95753.22;;;19.68;42.98
61292;BME280;47165;42.664;23.368;2022-07-18T04:25:44;95749.88;;;19.77;43.62
61292;BME280;47165;42.664;23.368;2022-07-18T04:28:11;95751.75;;;19.86;43.04
61292;BME280;47165;42.664;23.368;2022-07-18T04:30:38;95745.84;;;19.94;43.09
61292;BME280;47165;42.664;23.368;2022-07-18T04:33:06;95748.81;;;20.01;43.40
61292;BME280;47165;42.664;23.368;2022-07-18T04:35:32;95744.94;;;20.05;42.61
61292;BME280;47165;42.664;23.368;2022-07-18T04:38:01;95744.81;;;20.06;43.00
61292;BME280;47165;42.664;23.368;2022-07-18T04:40:26;95742.75;;;20.10;43.52
61292;BME280;47165;42.664;23.368;2022-07-18T04:42:52;95743.31;;;20.14;43.68
61292;BME280;47165;42.664;23.368;2022-07-18T04:45:17;95743.22;;;20.15;42.96
61292;BME280;47165;42.664;23.368;2022-07-18T04:47:47;95742.97;;;20.18;43.52
61292;BME280;47165;42.664;23.368;2022-07-18T04:50:13;95736.69;;;20.19;43.11
61292;BME280;47165;42.664;23.368;2022-07-18T04:52:40;95737.66;;;20.18;42.75
61292;BME280;47165;42.664;23.368;2022-07-18T04:55:07;95731.50;;;20.18;42.61
61292;BME280;47165;42.664;23.368;2022-07-18T04:57:33;95741.03;;;20.20;42.00
61292;BME280;47165;42.664;23.368;2022-07-18T05:00:00;95746.78;;;20.25;41.59
61292;BME280;47165;42.664;23.368;2022-07-18T05:02:25;95737.59;;;20.29;42.03
61292;BME280;47165;42.664;23.368;2022-07-18T05:04:51;95738.41;;;20.30;42.12
61292;BME280;47165;42.664;23.368;2022-07-18T05:07:16;95737.91;;;20.36;42.56
61292;BME280;47165;42.664;23.368;2022-07-18T05:09:42;95741.16;;;20.40;42.38
61292;BME280;47165;42.664;23.368;2022-07-18T05:12:07;95737.16;;;20.45;42.19
61292;BME280;47165;42.664;23.368;2022-07-18T05:14:32;95731.97;;;20.44;41.83
61292;BME280;47165;42.664;23.368;2022-07-18T05:16:58;95735.31;;;20.46;42.36
61292;BME280;47165;42.664;23.368;2022-07-18T05:19:23;95723.41;;;20.40;42.85
61292;BME280;47165;42.664;23.368;2022-07-18T05:21:49;95735.25;;;20.15;44.01
61292;BME280;47165;42.664;23.368;2022-07-18T05:24:14;95735.50;;;20.54;43.29
61292;BME280;47165;42.664;23.368;2022-07-18T05:26:39;95732.03;;;21.05;41.63
61292;BME280;47165;42.664;23.368;2022-07-18T05:29:05;95728.72;;;21.54;41.25
61292;BME280;47165;42.664;23.368;2022-07-18T05:31:31;95733.78;;;21.96;40.58
61292;BME280;47165;42.664;23.368;2022-07-18T05:33:56;95734.34;;;22.19;40.55
61292;BME280;47165;42.664;23.368;2022-07-18T05:36:21;95724.00;;;22.35;38.77
61292;BME280;47165;42.664;23.368;2022-07-18T05:38:47;95724.88;;;22.36;38.42
61292;BME280;47165;42.664;23.368;2022-07-18T05:41:12;95729.75;;;22.50;38.82
61292;BME280;47165;42.664;23.368;2022-07-18T05:43:38;95728.59;;;22.53;38.43
61292;BME280;47165;42.664;23.368;2022-07-18T05:46:04;95731.00;;;22.46;37.95
61292;BME280;47165;42.664;23.368;2022-07-18T05:48:29;95729.00;;;22.58;37.11
61292;BME280;47165;42.664;23.368;2022-07-18T05:50:55;95736.25;;;22.75;36.96
61292;BME280;47165;42.664;23.368;2022-07-18T05:53:20;95735.53;;;22.83;36.80
61292;BME280;47165;42.664;23.368;2022-07-18T05:55:46;95743.69;;;22.81;36.17
61292;BME280;47165;42.664;23.368;2022-07-18T05:58:11;95738.78;;;22.77;36.42
61292;BME280;47165;42.664;23.368;2022-07-18T06:00:38;95740.75;;;22.75;37.25
61292;BME280;47165;42.664;23.368;2022-07-18T06:03:03;95742.44;;;22.66;37.07
61292;BME280;47165;42.664;23.368;2022-07-18T06:05:29;95738.94;;;22.56;36.13
61292;BME280;47165;42.664;23.368;2022-07-18T06:07:55;95739.53;;;22.49;36.42
61292;BME280;47165;42.664;23.368;2022-07-18T06:10:24;95738.81;;;22.47;36.54
61292;BME280;47165;42.664;23.368;2022-07-18T06:12:50;95736.91;;;22.40;35.05
61292;BME280;47165;42.664;23.368;2022-07-18T06:15:15;95737.03;;;22.38;32.76
61292;BME280;47165;42.664;23.368;2022-07-18T06:17:41;95742.06;;;22.41;32.38
61292;BME280;47165;42.664;23.368;2022-07-18T06:20:07;95733.53;;;22.38;31.23
61292;BME280;47165;42.664;23.368;2022-07-18T06:22:34;95735.63;;;22.34;30.64
61292;BME280;47165;42.664;23.368;2022-07-18T06:25:00;95729.88;;;22.39;30.02
61292;BME280;47165;42.664;23.368;2022-07-18T06:27:26;95734.38;;;22.28;28.86
61292;BME280;47165;42.664;23.368;2022-07-18T06:29:51;95741.41;;;22.29;28.80
61292;BME280;47165;42.664;23.368;2022-07-18T06:32:17;95727.78;;;22.33;29.41
61292;BME280;47165;42.664;23.368;2022-07-18T06:34:42;95728.34;;;22.07;29.59
61292;BME280;47165;42.664;23.368;2022-07-18T06:37:07;95723.16;;;22.15;29.83
61292;BME280;47165;42.664;23.368;2022-07-18T06:39:33;95730.31;;;22.24;29.31
61292;BME280;47165;42.664;23.368;2022-07-18T06:41:58;95721.34;;;22.16;29.09
61292;BME280;47165;42.664;23.368;2022-07-18T06:44:24;95724.56;;;22.29;28.98
61292;BME280;47165;42.664;23.368;2022-07-18T06:46:49;95712.66;;;22.33;29.19
61292;BME280;47165;42.664;23.368;2022-07-18T06:49:17;95718.16;;;22.32;28.80
61292;BME280;47165;42.664;23.368;2022-07-18T06:51:43;95711.41;;;22.37;28.78
61292;BME280;47165;42.664;23.368;2022-07-18T06:54:08;95716.16;;;22.43;28.81
61292;BME280;47165;42.664;23.368;2022-07-18T06:56:33;95709.41;;;22.49;28.98
61292;BME280;47165;42.664;23.368;2022-07-18T06:58:59;95711.63;;;22.54;28.76
61292;BME280;47165;42.664;23.368;2022-07-18T07:01:24;95711.38;;;22.57;28.14
61292;BME280;47165;42.664;23.368;2022-07-18T07:03:50;95710.22;;;22.59;28.10
61292;BME280;47165;42.664;23.368;2022-07-18T07:06:15;95702.13;;;22.61;27.91
61292;BME280;47165;42.664;23.368;2022-07-18T07:08:42;95706.03;;;22.57;27.85
61292;BME280;47165;42.664;23.368;2022-07-18T07:11:07;95706.16;;;22.65;28.65
61292;BME280;47165;42.664;23.368;2022-07-18T07:13:33;95710.06;;;22.70;28.97
61292;BME280;47165;42.664;23.368;2022-07-18T07:15:58;95705.97;;;22.76;29.46
61292;BME280;47165;42.664;23.368;2022-07-18T07:18:24;95702.03;;;22.80;28.10
61292;BME280;47165;42.664;23.368;2022-07-18T07:20:49;95698.28;;;22.83;28.38
61292;BME280;47165;42.664;23.368;2022-07-18T07:23:15;95703.16;;;22.87;28.51
61292;BME280;47165;42.664;23.368;2022-07-18T07:25:42;95702.94;;;22.99;29.65
61292;BME280;47165;42.664;23.368;2022-07-18T07:28:08;95704.22;;;23.04;28.41
61292;BME280;47165;42.664;23.368;2022-07-18T07:30:34;95708.28;;;23.08;27.92
61292;BME280;47165;42.664;23.368;2022-07-18T07:33:00;95704.63;;;23.09;27.47
61292;BME280;47165;42.664;23.368;2022-07-18T07:35:26;95704.34;;;23.13;27.62
61292;BME280;47165;42.664;23.368;2022-07-18T07:37:56;95704.44;;;23.21;28.79
61292;BME280;47165;42.664;23.368;2022-07-18T07:40:24;95702.88;;;23.28;28.46
61292;BME280;47165;42.664;23.368;2022-07-18T07:42:51;95706.59;;;23.35;27.47
61292;BME280;47165;42.664;23.368;2022-07-18T07:45:17;95711.34;;;23.41;27.92
61292;BME280;47165;42.664;23.368;2022-07-18T07:47:44;95704.44;;;23.48;28.81
61292;BME280;47165;42.664;23.368;2022-07-18T07:50:10;95711.16;;;23.53;29.00
61292;BME280;47165;42.664;23.368;2022-07-18T07:52:37;95712.75;;;23.63;28.76
61292;BME280;47165;42.664;23.368;2022-07-18T07:55:06;95712.34;;;23.58;27.46
61292;BME280;47165;42.664;23.368;2022-07-18T07:57:32;95705.28;;;23.67;27.65
61292;BME280;47165;42.664;23.368;2022-07-18T07:59:58;95713.91;;;23.61;26.39
61292;BME280;47165;42.664;23.368;2022-07-18T08:02:23;95706.19;;;23.58;25.98
61292;BME280;47165;42.664;23.368;2022-07-18T08:04:48;95714.50;;;23.55;26.62
61292;BME280;47165;42.664;23.368;2022-07-18T08:07:15;95710.09;;;23.63;26.78
61292;BME280;47165;42.664;23.368;2022-07-18T08:09:41;95706.09;;;23.49;26.66
61292;BME280;47165;42.664;23.368;2022-07-18T08:12:06;95708.66;;;23.69;26.73
61292;BME280;47165;42.664;23.368;2022-07-18T08:14:32;95698.09;;;23.77;27.25
61292;BME280;47165;42.664;23.368;2022-07-18T08:16:58;95712.19;;;23.87;27.98
61292;BME280;47165;42.664;23.368;2022-07-18T08:19:24;95706.53;;;23.90;26.52
61292;BME280;47165;42.664;23.368;2022-07-18T08:21:49;95709.28;;;23.99;27.25
61292;BME280;47165;42.664;23.368;2022-07-18T08:24:15;95710.38;;;23.88;27.16
61292;BME280;47165;42.664;23.368;2022-07-18T08:26:40;95710.31;;;23.70;26.53
61292;BME280;47165;42.664;23.368;2022-07-18T08:29:06;95705.25;;;23.95;26.33
61292;BME280;47165;42.664;23.368;2022-07-18T08:31:32;95705.53;;;24.09;26.22
61292;BME280;47165;42.664;23.368;2022-07-18T08:33:57;95706.09;;;24.13;26.09
61292;BME280;47165;42.664;23.368;2022-07-18T08:36:23;95710.81;;;24.19;26.62
61292;BME280;47165;42.664;23.368;2022-07-18T08:38:49;95714.16;;;24.21;27.23
61292;BME280;47165;42.664;23.368;2022-07-18T08:41:16;95705.59;;;24.36;26.67
61292;BME280;47165;42.664;23.368;2022-07-18T08:43:44;95706.97;;;24.40;25.94
61292;BME280;47165;42.664;23.368;2022-07-18T08:46:10;95708.41;;;24.52;26.88
61292;BME280;47165;42.664;23.368;2022-07-18T08:48:37;95707.91;;;24.30;27.16
61292;BME280;47165;42.664;23.368;2022-07-18T08:51:05;95710.78;;;24.55;27.16
61292;BME280;47165;42.664;23.368;2022-07-18T08:53:30;95712.16;;;24.59;27.04
61292;BME280;47165;42.664;23.368;2022-07-18T08:55:57;95714.97;;;24.58;25.50
61292;BME280;47165;42.664;23.368;2022-07-18T08:58:23;95709.22;;;24.70;25.82
61292;BME280;47165;42.664;23.368;2022-07-18T09:00:48;95711.19;;;24.68;25.88
61292;BME280;47165;42.664;23.368;2022-07-18T09:03:14;95706.25;;;24.74;26.41
61292;BME280;47165;42.664;23.368;2022-07-18T09:05:39;95703.75;;;24.80;26.53
61292;BME280;47165;42.664;23.368;2022-07-18T09:08:18;95706.28;;;24.82;25.82
61292;BME280;47165;42.664;23.368;2022-07-18T09:10:54;95693.72;;;24.74;26.33
61292;BME280;47165;42.664;23.368;2022-07-18T09:13:25;95698.09;;;24.83;26.87
61292;BME280;47165;42.664;23.368;2022-07-18T09:16:10;95699.69;;;24.94;26.48
61292;BME280;47165;42.664;23.368;2022-07-18T09:18:39;95692.97;;;24.90;25.27
61292;BME280;47165;42.664;23.368;2022-07-18T09:21:14;95698.13;;;24.92;26.68
61292;BME280;47165;42.664;23.368;2022-07-18T09:23:47;95701.25;;;24.79;26.11
61292;BME280;47165;42.664;23.368;2022-07-18T09:26:34;95705.75;;;25.04;26.91
61292;BME280;47165;42.664;23.368;2022-07-18T09:29:02;95704.28;;;24.84;26.29
61292;BME280;47165;42.664;23.368;2022-07-18T09:31:28;95700.13;;;24.89;26.33
61292;BME280;47165;42.664;23.368;2022-07-18T09:33:55;95697.22;;;25.09;27.19
61292;BME280;47165;42.664;23.368;2022-07-18T09:36:21;95696.91;;;25.12;26.81
61292;BME280;47165;42.664;23.368;2022-07-18T09:38:46;95689.28;;;24.91;26.07
61292;BME280;47165;42.664;23.368;2022-07-18T09:41:12;95683.56;;;24.78;26.26
61292;BME280;47165;42.664;23.368;2022-07-18T09:43:37;95686.69;;;25.07;26.00
61292;BME280;47165;42.664;23.368;2022-07-18T09:46:04;95692.81;;;25.26;26.94
61292;BME280;47165;42.664;23.368;2022-07-18T09:48:30;95687.00;;;25.39;28.15
61292;BME280;47165;42.664;23.368;2022-07-18T09:50:59;95691.06;;;25.51;28.14
61292;BME280;47165;42.664;23.368;2022-07-18T09:53:42;95687.94;;;25.72;29.48
61292;BME280;47165;42.664;23.368;2022-07-18T09:56:23;95685.97;;;25.82;27.34
61292;BME280;47165;42.664;23.368;2022-07-18T09:58:53;95684.69;;;25.95;27.33
61292;BME280;47165;42.664;23.368;2022-07-18T10:01:19;95691.84;;;25.94;26.45
61292;BME280;47165;42.664;23.368;2022-07-18T10:03:45;95686.03;;;26.07;26.85
61292;BME280;47165;42.664;23.368;2022-07-18T10:06:11;95678.31;;;26.12;26.69
61292;BME280;47165;42.664;23.368;2022-07-18T10:08:37;95681.66;;;25.98;27.29
61292;BME280;47165;42.664;23.368;2022-07-18T10:11:05;95679.81;;;26.23;27.99
61292;BME280;47165;42.664;23.368;2022-07-18T10:13:32;95685.50;;;26.36;27.55
61292;BME280;47165;42.664;23.368;2022-07-18T10:15:58;95672.63;;;26.48;27.19
61292;BME280;47165;42.664;23.368;2022-07-18T10:18:26;95673.59;;;26.55;27.30
61292;BME280;47165;42.664;23.368;2022-07-18T10:23:27;95656.56;;;26.32;26.63
61292;BME280;47165;42.664;23.368;2022-07-18T10:26:25;95656.56;;;26.32;26.20
61292;BME280;47165;42.664;23.368;2022-07-18T10:36:33;95651.59;;;26.93;26.53
61292;BME280;47165;42.664;23.368;2022-07-18T10:57:37;95636.50;;;27.39;24.71
61292;BME280;47165;42.664;23.368;2022-07-18T11:02:36;95630.94;;;27.49;25.32
61292;BME280;47165;42.664;23.368;2022-07-18T11:05:03;95636.63;;;27.77;26.80
61292;BME280;47165;42.664;23.368;2022-07-18T11:21:20;95619.47;;;28.62;24.45
61292;BME280;47165;42.664;23.368;2022-07-18T11:23:53;95618.94;;;28.82;26.06
61292;BME280;47165;42.664;23.368;2022-07-18T11:26:21;95617.06;;;28.97;25.23
61292;BME280;47165;42.664;23.368;2022-07-18T11:28:47;95608.72;;;29.07;24.90
61292;BME280;47165;42.664;23.368;2022-07-18T11:31:16;95615.25;;;29.13;23.84
61292;BME280;47165;42.664;23.368;2022-07-18T11:33:47;95612.22;;;29.37;24.15
61292;BME280;47165;42.664;23.368;2022-07-18T11:36:15;95606.41;;;29.55;24.15
61292;BME280;47165;42.664;23.368;2022-07-18T11:38:55;95605.63;;;29.76;23.93
61292;BME280;47165;42.664;23.368;2022-07-18T11:41:21;95608.72;;;29.95;23.52
61292;BME280;47165;42.664;23.368;2022-07-18T11:43:49;95595.59;;;30.13;22.63
61292;BME280;47165;42.664;23.368;2022-07-18T11:46:18;95602.03;;;30.34;23.29
61292;BME280;47165;42.664;23.368;2022-07-18T11:48:45;95596.38;;;30.57;23.43
61292;BME280;47165;42.664;23.368;2022-07-18T11:51:12;95596.53;;;30.83;23.45
61292;BME280;47165;42.664;23.368;2022-07-18T11:54:04;95593.38;;;31.15;21.76
61292;BME280;47165;42.664;23.368;2022-07-18T11:56:30;95583.50;;;31.35;21.93
61292;BME280;47165;42.664;23.368;2022-07-18T11:58:56;95584.69;;;31.19;18.71
61292;BME280;47165;42.664;23.368;2022-07-18T12:01:30;95582.47;;;31.36;18.89
61292;BME280;47165;42.664;23.368;2022-07-18T12:03:56;95582.50;;;31.43;20.81
61292;BME280;47165;42.664;23.368;2022-07-18T12:06:23;95578.81;;;31.64;19.98
61292;BME280;47165;42.664;23.368;2022-07-18T12:08:52;95584.47;;;31.82;21.73
61292;BME280;47165;42.664;23.368;2022-07-18T12:11:28;95568.31;;;32.02;21.16
61292;BME280;47165;42.664;23.368;2022-07-18T12:13:55;95559.78;;;32.25;21.34
61292;BME280;47165;42.664;23.368;2022-07-18T12:18:58;95560.81;;;32.58;20.38
61292;BME280;47165;42.664;23.368;2022-07-18T12:21:24;95556.97;;;32.92;21.21
61292;BME280;47165;42.664;23.368;2022-07-18T12:23:50;95560.63;;;33.18;20.07
61292;BME280;47165;42.664;23.368;2022-07-18T12:26:28;95566.25;;;33.61;20.80
61292;BME280;47165;42.664;23.368;2022-07-18T12:29:07;95551.38;;;34.02;20.48
61292;BME280;47165;42.664;23.368;2022-07-18T12:31:44;95556.13;;;34.57;20.97
61292;BME280;47165;42.664;23.368;2022-07-18T12:34:15;95543.13;;;34.84;18.62
61292;BME280;47165;42.664;23.368;2022-07-18T12:36:51;95548.22;;;34.81;19.13
61292;BME280;47165;42.664;23.368;2022-07-18T12:39:31;95554.81;;;35.40;18.77
61292;BME280;47165;42.664;23.368;2022-07-18T12:41:57;95554.03;;;35.82;18.42
61292;BME280;47165;42.664;23.368;2022-07-18T12:44:27;95554.31;;;36.70;16.93
61292;BME280;47165;42.664;23.368;2022-07-18T12:46:54;95540.94;;;37.49;16.57
61292;BME280;47165;42.664;23.368;2022-07-18T12:49:21;95550.47;;;36.23;17.59
61292;BME280;47165;42.664;23.368;2022-07-18T12:51:47;95541.25;;;36.48;16.91
61292;BME280;47165;42.664;23.368;2022-07-18T12:54:13;95546.31;;;36.92;17.59
61292;BME280;47165;42.664;23.368;2022-07-18T12:56:38;95546.94;;;37.34;17.33
61292;BME280;47165;42.664;23.368;2022-07-18T12:59:04;95544.75;;;37.60;17.08
61292;BME280;47165;42.664;23.368;2022-07-18T13:01:30;95531.50;;;38.31;16.05
61292;BME280;47165;42.664;23.368;2022-07-18T13:03:56;95546.34;;;38.91;15.55
61292;BME280;47165;42.664;23.368;2022-07-18T13:06:22;95554.13;;;39.43;15.28
61292;BME280;47165;42.664;23.368;2022-07-18T13:08:47;95553.63;;;39.47;15.85
61292;BME280;47165;42.664;23.368;2022-07-18T13:11:13;95531.56;;;38.02;16.61
61292;BME280;47165;42.664;23.368;2022-07-18T13:13:39;95534.97;;;36.83;16.92
61292;BME280;47165;42.664;23.368;2022-07-18T13:16:04;95535.91;;;36.06;17.31
61292;BME280;47165;42.664;23.368;2022-07-18T13:18:30;95536.63;;;35.41;18.48
61292;BME280;47165;42.664;23.368;2022-07-18T13:20:55;95540.38;;;35.40;18.71
61292;BME280;47165;42.664;23.368;2022-07-18T13:23:21;95537.16;;;35.92;19.08
61292;BME280;47165;42.664;23.368;2022-07-18T13:25:46;95531.09;;;36.32;17.23
61292;BME280;47165;42.664;23.368;2022-07-18T13:28:12;95528.13;;;36.69;17.09
61292;BME280;47165;42.664;23.368;2022-07-18T13:30:38;95530.69;;;36.99;16.93
61292;BME280;47165;42.664;23.368;2022-07-18T13:33:04;95535.97;;;37.29;16.70
61292;BME280;47165;42.664;23.368;2022-07-18T13:35:30;95529.47;;;37.76;16.92